LICJ/PMO METAR and TAF weather

Enter ICAO airport designator
Station Type Date Time Source
LICJ METAR 2020/07/15 03:50 UTC NOAA

LICJ 150350Z 18003KT CAVOK 23/18 Q1013


Station Type Date Time Source
LICJ Decoded METAR 2020/07/15 03:50 UTC NOAA

Palermo / Punta Raisi, Italy (LICJ) 38-11N 013-06E 21M
Jul 14, 2020 - 11:50 PM EDT / 2020.07.15 0350 UTC
Wind: from the S (180 degrees) at 3 MPH (3 KT):0
Visibility: greater than 7 mile(s):0
Temperature: 73 F (23 C)
Dew Point: 64 F (18 C)
Relative Humidity: 73%
Pressure (altimeter): 29.91 in. Hg (1013 hPa)
ob: LICJ 150350Z 18003KT CAVOK 23/18 Q1013
cycle: 4

Station Type Date Time Source
LICJ TAF 2020/07/14 18:21 UTC NOAA

TAF LICJ 141700Z 1418/1518 VRB05KT 9999 SCT040
BECMG 1508/1510 02012KT

Example: see airport list